createdAt,value
2017-09-02T00:01:17.763Z,70.85
2017-09-02T00:03:43.827Z,69.99
2017-09-02T00:06:09.886Z,69.77
2017-09-02T00:08:36.014Z,69.30
2017-09-02T00:11:02.086Z,68.80
2017-09-02T00:13:28.183Z,69.48
2017-09-02T00:15:54.320Z,70.00
2017-09-02T00:18:20.464Z,70.24
2017-09-02T00:20:46.537Z,70.50
2017-09-02T00:23:12.638Z,71.04
2017-09-02T00:25:38.822Z,71.40
2017-09-02T00:28:04.927Z,70.90
2017-09-02T00:30:31.018Z,70.92
2017-09-02T00:32:57.180Z,70.05
2017-09-02T00:35:23.299Z,70.53
2017-09-02T00:37:49.388Z,71.33
2017-09-02T00:40:15.486Z,70.56
2017-09-02T00:42:41.572Z,70.32
2017-09-02T00:45:07.660Z,70.42
2017-09-02T00:47:33.788Z,70.26
2017-09-02T00:49:59.874Z,69.85
2017-09-02T00:52:25.986Z,68.94
2017-09-02T00:54:52.120Z,69.18
2017-09-02T00:57:18.199Z,69.63
2017-09-02T00:59:44.332Z,68.89
2017-09-02T01:02:10.468Z,69.43
2017-09-02T01:04:36.582Z,69.39
2017-09-02T01:07:02.664Z,68.23
2017-09-02T01:09:28.768Z,68.17
2017-09-02T01:11:54.890Z,67.58
2017-09-02T01:14:20.994Z,67.23
2017-09-02T01:16:47.170Z,67.48
2017-09-02T01:19:13.268Z,67.78
2017-09-02T01:21:39.380Z,68.23
2017-09-02T01:24:05.488Z,68.95
2017-09-02T01:26:31.562Z,68.72
2017-09-02T01:28:57.630Z,68.50
2017-09-02T01:31:23.751Z,69.43
2017-09-02T01:33:49.824Z,70.13
2017-09-02T01:36:15.950Z,70.75
2017-09-02T01:38:42.066Z,70.00
2017-09-02T01:41:08.139Z,70.00
2017-09-02T01:43:34.230Z,69.61
2017-09-02T01:46:00.320Z,69.90
2017-09-02T01:48:26.385Z,70.76
2017-09-02T01:50:52.474Z,71.03
2017-09-02T01:53:18.531Z,70.81
2017-09-02T01:55:44.640Z,71.58
2017-09-02T01:58:10.714Z,71.40
2017-09-02T02:00:36.762Z,71.03
2017-09-02T02:03:02.846Z,71.32
2017-09-02T02:05:28.907Z,71.67
2017-09-02T02:07:54.963Z,72.10
2017-09-02T02:10:21.101Z,72.47
2017-09-02T02:12:47.206Z,70.76
2017-09-02T02:15:13.285Z,69.18
2017-09-02T02:17:39.385Z,70.05
2017-09-02T02:20:05.479Z,70.21
2017-09-02T02:22:31.569Z,71.35
2017-09-02T02:24:57.641Z,72.12
2017-09-02T02:27:23.740Z,72.48
2017-09-02T02:29:49.809Z,72.35
2017-09-02T02:32:15.975Z,72.80
2017-09-02T02:34:42.066Z,73.09
2017-09-02T02:37:08.145Z,73.76
2017-09-02T02:39:34.293Z,74.13
2017-09-02T02:42:00.377Z,73.84
2017-09-02T02:44:26.509Z,74.14
2017-09-02T02:46:52.599Z,74.55
2017-09-02T02:49:18.693Z,74.98
2017-09-02T02:51:44.835Z,74.77
2017-09-02T02:54:10.909Z,74.72
2017-09-02T02:56:37.011Z,74.88
2017-09-02T02:59:03.160Z,74.89
2017-09-02T03:01:29.289Z,75.04
2017-09-02T03:03:55.401Z,74.96
2017-09-02T03:06:21.517Z,75.02
2017-09-02T03:08:47.591Z,75.67
2017-09-02T03:11:13.689Z,75.65
2017-09-02T03:13:39.814Z,76.02
2017-09-02T03:16:05.932Z,76.21
2017-09-02T03:18:32.000Z,76.45
2017-09-02T03:20:58.087Z,76.72
2017-09-02T03:23:24.171Z,76.55
2017-09-02T03:25:50.351Z,77.08
2017-09-02T03:28:16.457Z,76.67
2017-09-02T03:30:42.531Z,76.39
2017-09-02T03:33:08.646Z,76.82
2017-09-02T03:35:34.765Z,77.32
2017-09-02T03:38:00.859Z,77.54
2017-09-02T03:40:26.975Z,77.61
2017-09-02T03:42:53.041Z,78.03
2017-09-02T03:45:19.125Z,77.96
2017-09-02T03:47:45.183Z,78.42
2017-09-02T03:50:11.271Z,78.52
2017-09-02T03:52:37.402Z,78.37
2017-09-02T03:55:03.497Z,78.25
2017-09-02T03:57:29.587Z,78.30
2017-09-02T03:59:55.680Z,78.38
2017-09-02T04:02:21.805Z,78.23
2017-09-02T04:04:47.910Z,78.59
2017-09-02T04:07:13.987Z,78.67
2017-09-02T04:09:40.115Z,78.96
2017-09-02T04:12:06.242Z,78.95
2017-09-02T04:14:32.367Z,79.15
2017-09-02T04:16:58.491Z,78.91
2017-09-02T04:19:25.409Z,79.05
2017-09-02T04:21:51.512Z,78.95
2017-09-02T04:24:17.586Z,79.17
2017-09-02T04:26:43.699Z,79.13
2017-09-02T04:29:09.771Z,79.03
2017-09-02T04:31:35.915Z,78.80
2017-09-02T04:34:02.006Z,77.94
2017-09-02T04:36:28.096Z,77.55
2017-09-02T04:38:54.178Z,76.69
2017-09-02T04:41:20.354Z,76.64
2017-09-02T04:43:46.447Z,76.36
2017-09-02T04:46:12.539Z,76.11
2017-09-02T04:48:38.634Z,76.02
2017-09-02T04:51:04.747Z,75.88
2017-09-02T04:53:30.870Z,75.97
2017-09-02T04:55:57.000Z,75.53
2017-09-02T04:58:23.120Z,75.61
2017-09-02T05:00:49.217Z,75.21
2017-09-02T05:03:15.303Z,74.48
2017-09-02T05:05:41.433Z,73.58
2017-09-02T05:08:07.512Z,73.45
2017-09-02T05:10:33.606Z,73.61
2017-09-02T05:12:59.951Z,73.93
2017-09-02T05:15:26.065Z,73.68
2017-09-02T05:17:52.159Z,73.68
2017-09-02T05:20:18.256Z,73.08
2017-09-02T05:22:44.367Z,73.18
2017-09-02T05:25:10.450Z,73.01
2017-09-02T05:27:36.515Z,70.84
2017-09-02T05:30:02.614Z,71.05
2017-09-02T05:32:28.759Z,70.50
2017-09-02T05:34:54.847Z,71.06
2017-09-02T05:37:20.983Z,71.19
2017-09-02T05:39:47.125Z,71.58
2017-09-02T05:42:13.263Z,71.43
2017-09-02T05:44:39.370Z,71.17
2017-09-02T05:47:05.465Z,71.15
2017-09-02T05:49:32.088Z,71.39
2017-09-02T05:51:58.213Z,70.73
2017-09-02T05:54:24.332Z,70.79
2017-09-02T05:56:50.435Z,70.42
2017-09-02T05:59:16.552Z,70.30
2017-09-02T06:01:42.688Z,70.52
2017-09-02T06:04:08.756Z,70.20
2017-09-02T06:06:34.823Z,70.01
2017-09-02T06:09:00.950Z,69.96
2017-09-02T06:11:27.052Z,68.61
2017-09-02T06:13:53.178Z,67.29
2017-09-02T06:16:19.276Z,68.18
2017-09-02T06:18:45.392Z,69.42
2017-09-02T06:21:11.510Z,69.96
2017-09-02T06:23:37.681Z,68.58
2017-09-02T06:26:03.740Z,68.49
2017-09-02T06:28:29.873Z,67.56
2017-09-02T06:30:55.995Z,67.28
2017-09-02T06:33:22.065Z,66.50
2017-09-02T06:35:48.145Z,64.56
2017-09-02T06:38:14.240Z,64.53
2017-09-02T06:40:40.323Z,64.19
2017-09-02T06:43:06.436Z,63.65
2017-09-02T06:45:32.657Z,62.88
2017-09-02T06:47:59.066Z,63.00
2017-09-02T06:50:25.504Z,63.29
2017-09-02T06:52:51.648Z,62.69
2017-09-02T06:55:17.740Z,60.76
2017-09-02T06:57:43.908Z,61.51
2017-09-02T07:00:10.064Z,62.25
2017-09-02T07:02:36.148Z,62.31
2017-09-02T07:05:02.258Z,62.08
2017-09-02T07:07:28.407Z,61.18
2017-09-02T07:09:54.492Z,62.20
2017-09-02T07:12:20.658Z,60.52
2017-09-02T07:14:46.744Z,60.34
2017-09-02T07:17:12.866Z,61.27
2017-09-02T07:19:38.976Z,61.05
2017-09-02T07:22:05.128Z,60.66
2017-09-02T07:24:31.419Z,60.20
2017-09-02T07:26:57.548Z,59.73
2017-09-02T07:29:23.646Z,59.10
2017-09-02T07:31:49.739Z,59.81
2017-09-02T07:34:16.106Z,59.75
2017-09-02T07:36:42.177Z,58.00
2017-09-02T07:39:08.290Z,57.35
2017-09-02T07:41:34.530Z,55.93
2017-09-02T07:44:00.798Z,53.94
2017-09-02T07:46:33.795Z,53.05
2017-09-02T07:49:00.659Z,52.61
2017-09-02T07:51:26.836Z,53.65
2017-09-02T07:53:52.975Z,53.70
2017-09-02T07:56:19.103Z,53.97
2017-09-02T07:58:45.220Z,54.61
2017-09-02T08:01:11.380Z,55.02
2017-09-02T08:03:37.541Z,54.01
2017-09-02T08:06:03.639Z,52.91
2017-09-02T08:08:29.752Z,51.48
2017-09-02T08:10:55.898Z,55.07
2017-09-02T08:13:22.048Z,55.45
2017-09-02T08:15:48.128Z,55.49
2017-09-02T08:18:14.220Z,55.27
2017-09-02T08:20:40.389Z,55.70
2017-09-02T08:23:06.489Z,55.94
2017-09-02T08:25:32.581Z,56.28
2017-09-02T08:27:58.697Z,55.55
2017-09-02T08:30:24.869Z,54.12
2017-09-02T08:32:50.988Z,53.60
2017-09-02T08:35:17.085Z,52.49
2017-09-02T08:37:43.185Z,52.04
2017-09-02T08:40:09.310Z,50.83
2017-09-02T08:42:36.522Z,49.29
2017-09-02T08:45:02.680Z,49.63
2017-09-02T08:47:28.743Z,52.25
2017-09-02T08:49:54.898Z,53.22
2017-09-02T08:52:20.973Z,51.70
2017-09-02T08:54:47.062Z,50.47
2017-09-02T08:57:13.210Z,49.43
2017-09-02T08:59:39.312Z,47.88
2017-09-02T09:02:05.398Z,47.71
2017-09-02T09:04:31.487Z,47.58
2017-09-02T09:06:57.614Z,48.16
2017-09-02T09:09:23.766Z,47.82
2017-09-02T09:11:49.856Z,46.20
2017-09-02T09:14:15.991Z,46.12
2017-09-02T09:16:42.112Z,46.85
2017-09-02T09:19:08.213Z,46.60
2017-09-02T09:21:34.384Z,44.93
2017-09-02T09:24:00.504Z,45.57
2017-09-02T09:26:26.662Z,45.49
2017-09-02T09:28:52.774Z,45.48
2017-09-02T09:31:18.892Z,45.02
2017-09-02T09:33:45.089Z,45.72
2017-09-02T09:36:11.242Z,44.94
2017-09-02T09:38:37.541Z,45.21
2017-09-02T09:41:03.987Z,42.86
2017-09-02T09:43:30.138Z,42.30
2017-09-02T09:45:56.369Z,43.53
2017-09-02T09:48:22.476Z,43.27
2017-09-02T09:50:48.613Z,42.92
2017-09-02T09:53:14.873Z,43.84
2017-09-02T09:55:41.203Z,43.35
2017-09-02T09:58:07.417Z,42.39
2017-09-02T10:00:33.709Z,43.50
2017-09-02T10:03:00.051Z,43.07
2017-09-02T10:05:26.337Z,42.80
2017-09-02T10:07:52.537Z,43.51
2017-09-02T10:10:18.804Z,44.58
2017-09-02T10:12:44.957Z,42.68
2017-09-02T10:15:11.220Z,40.75
2017-09-02T10:17:37.451Z,38.89
2017-09-02T10:20:03.585Z,39.26
2017-09-02T10:22:29.732Z,38.03
2017-09-02T10:24:55.887Z,39.74
2017-09-02T10:27:22.189Z,37.73
2017-09-02T10:29:48.384Z,37.84
2017-09-02T10:32:14.577Z,38.86
2017-09-02T10:34:40.842Z,39.22
2017-09-02T10:37:07.093Z,39.32
2017-09-02T10:39:33.389Z,40.12
2017-09-02T10:41:59.524Z,39.94
2017-09-02T10:44:25.897Z,39.81
2017-09-02T10:46:52.011Z,40.08
2017-09-02T10:49:18.187Z,39.71
2017-09-02T10:51:44.423Z,37.85
2017-09-02T10:54:10.557Z,37.21
2017-09-02T10:56:36.692Z,37.62
2017-09-02T10:59:02.845Z,35.21
2017-09-02T11:01:28.993Z,34.69
2017-09-02T11:03:55.255Z,34.87
2017-09-02T11:06:21.381Z,34.40
2017-09-02T11:08:47.524Z,32.89
2017-09-02T11:11:13.681Z,33.84
2017-09-02T11:13:39.819Z,35.71
2017-09-02T11:16:05.918Z,35.01
2017-09-02T11:18:32.113Z,33.75
2017-09-02T11:20:58.211Z,32.80
2017-09-02T11:23:24.362Z,31.55
2017-09-02T11:25:51.453Z,32.48
2017-09-02T11:28:17.562Z,33.35
2017-09-02T11:30:43.654Z,35.05
2017-09-02T11:33:09.989Z,35.01
2017-09-02T11:35:36.060Z,34.85
2017-09-02T11:38:02.206Z,35.21
2017-09-02T11:40:28.354Z,35.04
2017-09-02T11:42:54.498Z,35.47
2017-09-02T11:45:20.648Z,35.70
2017-09-02T11:47:46.799Z,34.88
2017-09-02T11:50:12.908Z,36.21
2017-09-02T11:52:39.046Z,35.99
2017-09-02T11:55:05.262Z,34.59
2017-09-02T11:57:31.402Z,31.64
2017-09-02T11:59:57.561Z,32.91
2017-09-02T12:02:23.678Z,29.88
2017-09-02T12:04:49.802Z,25.09
2017-09-02T12:07:15.952Z,20.34
2017-09-02T12:09:42.118Z,18.41
2017-09-02T12:12:08.227Z,16.20
2017-09-02T12:14:34.437Z,15.23
2017-09-02T12:17:00.826Z,14.61
2017-09-02T12:19:26.954Z,13.65
2017-09-02T12:21:53.198Z,14.15
2017-09-02T12:24:19.334Z,14.26
2017-09-02T12:26:45.435Z,15.32
2017-09-02T12:29:11.760Z,16.71
2017-09-02T12:31:37.880Z,17.72
2017-09-02T12:34:04.079Z,16.33
2017-09-02T12:36:30.184Z,19.57
2017-09-02T12:38:56.338Z,18.34
2017-09-02T12:41:22.459Z,17.53
2017-09-02T12:43:48.662Z,16.63
2017-09-02T12:46:14.804Z,13.95
2017-09-02T12:48:40.949Z,11.77
2017-09-02T12:51:07.419Z,12.65
2017-09-02T12:53:33.609Z,12.70
2017-09-02T12:55:59.696Z,11.28
2017-09-02T12:58:25.984Z,12.26
2017-09-02T13:00:52.107Z,14.42
2017-09-02T13:03:18.331Z,16.53
2017-09-02T13:05:44.571Z,19.78
2017-09-02T13:08:10.703Z,20.83
2017-09-02T13:10:36.811Z,21.60
2017-09-02T13:13:02.970Z,19.41
2017-09-02T13:15:29.121Z,17.43
2017-09-02T13:17:55.223Z,16.11
2017-09-02T13:20:21.362Z,16.84
2017-09-02T13:22:47.481Z,18.36
2017-09-02T13:25:13.615Z,16.05
2017-09-02T13:27:39.837Z,18.12
2017-09-02T13:30:05.937Z,20.12
2017-09-02T13:32:32.057Z,17.87
2017-09-02T13:34:58.209Z,16.64
2017-09-02T13:37:24.362Z,18.04
2017-09-02T13:39:50.510Z,18.38
2017-09-02T13:42:16.738Z,18.78
2017-09-02T13:44:42.831Z,20.42
2017-09-02T13:47:08.917Z,22.51
2017-09-02T13:49:35.029Z,23.00
2017-09-02T13:52:01.146Z,23.18
2017-09-02T13:54:27.281Z,23.75
2017-09-02T13:56:53.465Z,21.70
2017-09-02T13:59:19.584Z,19.02
2017-09-02T14:01:45.728Z,17.12
2017-09-02T14:04:11.873Z,16.72
2017-09-02T14:06:38.051Z,17.22
2017-09-02T14:09:04.164Z,18.09
2017-09-02T14:11:30.359Z,19.34
2017-09-02T14:13:56.487Z,20.87
2017-09-02T14:16:22.601Z,22.35
2017-09-02T14:18:49.080Z,24.50
2017-09-02T14:21:15.183Z,24.68
2017-09-02T14:23:41.307Z,25.54
2017-09-02T14:26:07.447Z,25.83
2017-09-02T14:28:33.639Z,26.24
2017-09-02T14:30:59.932Z,26.64
2017-09-02T14:33:26.118Z,27.36
2017-09-02T14:35:52.282Z,27.37
2017-09-02T14:38:19.428Z,28.42
2017-09-02T14:40:45.571Z,27.77
2017-09-02T14:43:12.609Z,29.08
2017-09-02T14:45:38.770Z,28.86
2017-09-02T14:48:04.940Z,28.72
2017-09-02T14:50:31.372Z,29.91
2017-09-02T14:52:57.959Z,29.68
2017-09-02T14:55:24.103Z,30.14
2017-09-02T14:57:50.200Z,30.79
2017-09-02T15:00:16.356Z,30.48
2017-09-02T15:02:42.498Z,30.88
2017-09-02T15:05:08.598Z,30.05
2017-09-02T15:07:34.722Z,31.10
2017-09-02T15:10:00.878Z,31.08
2017-09-02T15:12:28.126Z,31.88
2017-09-02T15:14:54.308Z,32.65
2017-09-02T15:17:20.410Z,32.81
2017-09-02T15:19:46.526Z,32.33
2017-09-02T15:22:12.684Z,33.51
2017-09-02T15:24:38.836Z,33.91
2017-09-02T15:27:05.594Z,33.77
2017-09-02T15:29:31.786Z,34.08
2017-09-02T15:31:57.883Z,34.61
2017-09-02T15:34:23.995Z,34.13
2017-09-02T15:36:50.110Z,36.31
2017-09-02T15:39:16.255Z,35.68
2017-09-02T15:41:42.371Z,37.27
2017-09-02T15:44:08.445Z,37.41
2017-09-02T15:46:34.597Z,39.06
2017-09-02T15:49:00.711Z,40.50
2017-09-02T15:51:26.828Z,41.73
2017-09-02T15:53:52.948Z,42.34
2017-09-02T15:56:19.060Z,43.53
2017-09-02T15:58:45.185Z,43.85
2017-09-02T16:01:11.378Z,43.94
2017-09-02T16:03:37.557Z,44.42
2017-09-02T16:06:03.735Z,45.96
2017-09-02T16:08:29.868Z,47.09
2017-09-02T16:10:56.105Z,47.54
2017-09-02T16:13:22.334Z,46.53
2017-09-02T16:15:48.520Z,46.77
2017-09-02T16:18:14.757Z,47.08
2017-09-02T16:20:40.850Z,46.79
2017-09-02T16:23:06.927Z,47.39
2017-09-02T16:25:34.887Z,47.52
2017-09-02T16:28:08.727Z,47.99
2017-09-02T16:30:34.887Z,48.24
2017-09-02T16:33:01.028Z,48.07
2017-09-02T16:35:27.127Z,48.34
2017-09-02T16:37:53.234Z,49.40
2017-09-02T16:40:19.376Z,50.03
2017-09-02T16:42:45.508Z,50.42
2017-09-02T16:45:11.640Z,51.25
2017-09-02T16:47:37.825Z,50.55
2017-09-02T16:50:04.073Z,50.76
2017-09-02T16:52:30.182Z,50.80
2017-09-02T16:54:56.373Z,51.23
2017-09-02T16:57:22.544Z,51.17
2017-09-02T16:59:48.624Z,50.35
2017-09-02T17:02:14.891Z,50.77
2017-09-02T17:04:41.137Z,51.40
2017-09-02T17:07:07.256Z,51.07
2017-09-02T17:09:33.485Z,52.00
2017-09-02T17:11:59.600Z,51.71
2017-09-02T17:14:25.726Z,51.60
2017-09-02T17:16:51.831Z,52.01
2017-09-02T17:19:17.942Z,52.39
2017-09-02T17:21:44.085Z,52.12
2017-09-02T17:24:10.249Z,52.81
2017-09-02T17:26:36.341Z,52.80
2017-09-02T17:29:02.752Z,53.32
2017-09-02T17:31:28.890Z,53.54
2017-09-02T17:33:55.124Z,54.38
2017-09-02T17:36:21.306Z,54.51
2017-09-02T17:38:47.409Z,55.41
2017-09-02T17:41:13.531Z,56.01
2017-09-02T17:43:39.658Z,56.61
2017-09-02T17:46:05.957Z,56.50
2017-09-02T17:48:32.116Z,56.79
2017-09-02T17:50:59.353Z,57.28
2017-09-02T17:53:26.111Z,57.37
2017-09-02T17:55:52.379Z,58.12
2017-09-02T17:58:18.504Z,58.46
2017-09-02T18:00:44.705Z,59.07
2017-09-02T18:03:10.896Z,59.99
2017-09-02T18:05:37.081Z,60.15
2017-09-02T18:08:03.231Z,59.66
2017-09-02T18:10:29.335Z,59.92
2017-09-02T18:12:55.465Z,59.92
2017-09-02T18:15:21.621Z,60.13
2017-09-02T18:17:47.742Z,60.04
2017-09-02T18:20:13.877Z,60.18
2017-09-02T18:22:40.028Z,60.53
2017-09-02T18:25:06.310Z,60.20
2017-09-02T18:27:32.518Z,60.35
2017-09-02T18:29:58.651Z,60.15
2017-09-02T18:32:24.801Z,60.45
2017-09-02T18:34:50.900Z,60.94
2017-09-02T18:37:17.037Z,60.61
2017-09-02T18:39:43.167Z,61.03
2017-09-02T18:42:09.353Z,61.47
2017-09-02T18:44:35.437Z,61.36
2017-09-02T18:47:01.624Z,61.62
2017-09-02T18:49:27.788Z,61.44
2017-09-02T18:51:54.098Z,61.05
2017-09-02T18:54:20.264Z,60.87
2017-09-02T18:56:46.583Z,60.42
2017-09-02T18:59:12.808Z,60.30
2017-09-02T19:01:38.978Z,60.19
2017-09-02T19:04:05.156Z,60.21
2017-09-02T19:06:31.319Z,59.57
2017-09-02T19:08:57.503Z,59.68
2017-09-02T19:11:23.625Z,59.46
2017-09-02T19:13:49.786Z,59.19
2017-09-02T19:16:15.928Z,57.60
2017-09-02T19:18:42.056Z,56.94
2017-09-02T19:21:08.179Z,57.32
2017-09-02T19:23:34.404Z,56.89
2017-09-02T19:26:00.550Z,57.30
2017-09-02T19:28:26.723Z,55.90
2017-09-02T19:30:53.044Z,56.31
2017-09-02T19:33:19.185Z,56.42
2017-09-02T19:35:45.403Z,57.01
2017-09-02T19:38:11.647Z,57.48
2017-09-02T19:40:37.815Z,57.26
2017-09-02T19:43:03.996Z,57.15
2017-09-02T19:45:30.202Z,57.45
2017-09-02T19:47:56.386Z,58.20
2017-09-02T19:50:22.567Z,57.87
2017-09-02T19:52:48.815Z,58.11
2017-09-02T19:55:14.932Z,58.20
2017-09-02T19:57:41.100Z,58.31
2017-09-02T20:00:07.280Z,58.30
2017-09-02T20:02:33.487Z,58.57
2017-09-02T20:04:59.674Z,59.74
2017-09-02T20:07:25.848Z,59.44
2017-09-02T20:09:52.172Z,59.47
2017-09-02T20:12:18.296Z,59.30
2017-09-02T20:14:44.474Z,59.67
2017-09-02T20:17:10.655Z,60.35
2017-09-02T20:19:36.835Z,60.91
2017-09-02T20:22:03.062Z,60.43
2017-09-02T20:24:29.433Z,60.37
2017-09-02T20:26:55.596Z,60.77
2017-09-02T20:29:21.840Z,60.48
2017-09-02T20:31:48.126Z,60.68
2017-09-02T20:34:14.373Z,60.61
2017-09-02T20:36:40.558Z,60.53
2017-09-02T20:39:06.978Z,60.37
2017-09-02T20:41:33.196Z,61.32
2017-09-02T20:43:59.447Z,62.40
2017-09-02T20:46:25.671Z,62.20
2017-09-02T20:48:51.837Z,61.94
2017-09-02T20:51:18.058Z,62.24
2017-09-02T20:53:44.183Z,61.95
2017-09-02T20:56:10.313Z,62.58
2017-09-02T20:58:36.497Z,62.80
2017-09-02T21:01:09.639Z,62.16
2017-09-02T21:12:36.702Z,64.62
2017-09-02T21:21:13.568Z,63.05
2017-09-02T21:23:42.394Z,63.75
2017-09-02T21:26:08.583Z,64.27
2017-09-02T21:28:34.819Z,64.02
2017-09-02T21:31:00.944Z,64.09
2017-09-02T21:33:27.332Z,63.29
2017-09-02T21:35:53.477Z,62.93
2017-09-02T21:38:20.564Z,63.03
2017-09-02T21:40:46.770Z,63.59
2017-09-02T21:43:12.888Z,63.91
2017-09-02T21:45:41.394Z,64.23
2017-09-02T21:48:07.507Z,64.57
2017-09-02T21:50:33.656Z,64.74
2017-09-02T21:53:00.820Z,64.73
2017-09-02T21:55:27.342Z,65.52
2017-09-02T21:57:53.483Z,64.70
2017-09-02T22:00:20.383Z,64.89
2017-09-02T22:02:46.501Z,63.75
2017-09-02T22:05:12.670Z,63.63
2017-09-02T22:07:38.789Z,64.46
2017-09-02T22:10:04.969Z,64.19
2017-09-02T22:12:31.093Z,63.99
2017-09-02T22:14:57.219Z,64.96
2017-09-02T22:17:23.328Z,65.14
2017-09-02T22:19:49.471Z,64.94
2017-09-02T22:22:15.564Z,63.09
2017-09-02T22:24:41.629Z,63.47
2017-09-02T22:27:14.792Z,63.57
2017-09-02T22:29:40.898Z,64.02
2017-09-02T22:32:07.021Z,64.07
2017-09-02T22:34:33.231Z,64.22
2017-09-02T22:36:59.434Z,64.34
2017-09-02T22:39:25.636Z,64.65
2017-09-02T22:41:51.784Z,65.09
2017-09-02T22:44:17.908Z,65.17
2017-09-02T22:46:44.850Z,65.10
2017-09-02T22:49:11.008Z,65.30
2017-09-02T22:51:37.217Z,65.26
2017-09-02T22:54:03.362Z,64.85
2017-09-02T22:56:29.548Z,65.38
2017-09-02T22:58:55.712Z,65.85
2017-09-02T23:01:21.807Z,66.37
2017-09-02T23:03:48.008Z,66.56
2017-09-02T23:06:14.098Z,66.27
2017-09-02T23:08:40.229Z,66.18
2017-09-02T23:11:06.366Z,65.58
2017-09-02T23:13:32.496Z,65.97
2017-09-02T23:15:58.608Z,66.26
2017-09-02T23:18:24.786Z,64.55
2017-09-02T23:20:50.906Z,64.46
2017-09-02T23:23:17.945Z,65.24
2017-09-02T23:25:44.100Z,64.86
2017-09-02T23:28:10.229Z,64.96
2017-09-02T23:30:36.361Z,65.19
2017-09-02T23:33:02.511Z,62.96
2017-09-02T23:35:28.609Z,62.55
2017-09-02T23:37:54.682Z,63.22
2017-09-02T23:40:20.830Z,63.42
2017-09-02T23:42:46.941Z,63.49
2017-09-02T23:45:13.039Z,63.45
2017-09-02T23:47:39.173Z,64.29
2017-09-02T23:50:05.332Z,63.74
2017-09-02T23:52:31.375Z,63.82
2017-09-02T23:54:57.560Z,63.45
2017-09-02T23:57:23.626Z,63.73
2017-09-02T23:59:49.713Z,63.15
